FQMA/MPM METAR and TAF weather

Enter ICAO airport designator
Station Type Date Time Source
FQMA METAR 2020/10/22 04:00 UTC NOAA

FQMA 220400Z 22008KT 9999 SCT020 19/16 Q1024 NOSIG


Station Type Date Time Source
FQMA Decoded METAR 2020/10/22 04:00 UTC NOAA

Maputo / Mavalane, Mozambique (FQMA) 25-55S 032-34E 44M
Oct 22, 2020 - 12:00 AM EDT / 2020.10.22 0400 UTC
Wind: from the SW (220 degrees) at 9 MPH (8 KT):0
Visibility: greater than 7 mile(s):0
Sky conditions: partly cloudy
Temperature: 66 F (19 C)
Dew Point: 60 F (16 C)
Relative Humidity: 82%
Pressure (altimeter): 30.24 in. Hg (1024 hPa)
ob: FQMA 220400Z 22008KT 9999 SCT020 19/16 Q1024 NOSIG
cycle: 4

Station Type Date Time Source
FQMA TAF 2020/10/22 06:06 UTC NOAA

TAF FQMA 220400Z 2206/2312 22008KT 9999 SCT020 TX27/2213Z TN19/2303Z
BECMG 2212/2214 08010KT
BECMG 2218/2220 02010KT
BECMG 2300/2302 18010KT

Example: see airport list